Nearby METAR Reports

 

KBVO - Bartlesville, Oklahoma, USA
Distance from station: WNW 10mi, 16km
Updated: Thu, 16-Aug-2018 6:53pm CDT
Partly cloudy
Partly cloudy
 Wind from SW
Wind: SW 8 mph , 13 km/h
Temperature: 73°F , 23°C
Dew Point: 70°F , 21°C
Humidity: 89%
Barometer: 29.99 inHg , 1015.6 hPa
Clouds: Partly cloudy
Visibility: 10 miles , 16 km
Cloud details: Few Clouds 6500 ft
Few Clouds 8500 ft
Partly cloudy 11000 ft
2018/08/16 23:53 KBVO 162353Z AUTO 23007KT 10SM FEW065 FEW085 SCT110 23/21 A2999 RMK AO2 LTG DSNT E-S RAE41 TSE00 SLP146 P0002 60050 T02280211 10350 20222 $
KCFV - Coffeyville, Kansas, USA
Distance from station: NNE 31mi, 49km
Updated: Thu, 16-Aug-2018 6:52pm CDT
Few Clouds
Few Clouds
 Wind from W
Wind: W 17 mph , 28 km/h, Gust: 24 mph , 39 km/h
Temperature: 75°F , 24°C
Dew Point: 70°F , 21°C
Humidity: 83%
Barometer: 29.93 inHg , 1013.5 hPa
Clouds: Few Clouds
Visibility: 10 miles , 16 km
Cloud details: Few Clouds 8000 ft
2018/08/16 23:52 KCFV 162352Z AUTO 28015G21KT 10SM FEW080 24/21 A2993 RMK AO2 WSHFT 2300 LTG DSNT SE AND S RAE17B28E46 TSE06 SLP130 P0002 60009 T02440206 10344 20228 50008
 
KIDP - Independence, Kansas, USA
Distance from station: N 32mi, 52km
Updated: Thu, 16-Aug-2018 7:15pm CDT
Clear
Clear
 Wind from SSW
Wind: SSW 14 mph , 22 km/h
Temperature: 75°F , 24°C
Dew Point: 70°F , 21°C
Humidity: 83%
Barometer: 29.97 inHg , 1014.9 hPa
Clouds: Clear
Visibility: 10 miles , 16 km
2018/08/17 00:15 KIDP 170015Z AUTO 21012KT 10SM CLR 24/21 A2997 RMK AO2 LTG DSNT N
KGCM - Claremore, Oklahoma, USA
Distance from station: SE 35mi, 56km
Updated: Thu, 16-Aug-2018 7:15pm CDT
Light thunderstorm rain, Partly cloudy
Light thunderstorm rain, Partly cloudy
 Wind from S
Wind: S 6 mph , 9 km/h
Temperature: 70°F , 21°C
Dew Point: 68°F , 20°C
Humidity: 94%
Barometer: 30.03 inHg , 1016.9 hPa
Summary: Light Thunderstorm Rain
Clouds: Partly cloudy
Visibility: 10 miles , 16 km
Cloud details: Partly cloudy 12000 ft
2018/08/17 00:15 KGCM 170015Z AUTO 18005KT 10SM -TSRA SCT120 21/20 A3003 RMK AO2 P0001 LTG DSNT ALQS
 
KTUL - Tulsa, Oklahoma, USA
Distance from station: S 35mi, 56km
Updated: Thu, 16-Aug-2018 6:53pm CDT
Thunderstorm rain, Mostly cloudy
Thunderstorm rain, Mostly cloudy
 Wind from S
Wind: S 13 mph , 20 km/h, Gust: 20 mph , 31 km/h
Temperature: 79°F , 26°C
Dew Point: 66°F , 19°C
Humidity: 65%
Barometer: 29.98 inHg , 1015.2 hPa
Summary: Thunderstorm Rain
Clouds: Mostly cloudy
Visibility: 7 miles , 11 km
Cloud details: Few Clouds 6000 ft
Partly cloudy 8000 ft
Mostly cloudy 11000 ft
Mostly cloudy 25000 ft
2018/08/16 23:53 KTUL 162353Z 18011G17KT 7SM TSRA FEW060CB SCT080 BKN110 BKN250 26/19 A2998 RMK AO2 PK WND 24035/2255 LTG DSNT ALQDS PRESFR SLP146 OCNL LTGICCCCG OHD-ALQDS TS OHD-ALQDS MOV E P0006 60021 T02610194 10350 20211 50021 $
KRVS - Tulsa, Oklahoma, USA
Distance from station: S 46mi, 74km
Updated: Thu, 16-Aug-2018 4:04pm CDT
NOT Current
Heavy thunderstorm rain, Overcast
Heavy thunderstorm rain, Overcast
 Wind from NNW
Wind: NNW 20 mph , 31 km/h, Gust: 41 mph , 67 km/h
Temperature: 73°F , 23°C
Dew Point: 66°F , 19°C
Humidity: 78%
Barometer: 29.95 inHg , 1014.2 hPa
Summary: Heavy Thunderstorm Rain
Clouds: Overcast
Visibility: 3/4 mile , 5 km
Cloud details: Mostly cloudy 2000 ft
Mostly cloudy 6000 ft
Overcast 8000 ft
2018/08/16 21:04 KRVS 162104Z 33017G36KT 3/4SM +TSRA BKN020 BKN060 OVC080 23/19 A2995 RMK AO2 PK WND 33036/2103 WSHFT 2050 LTG DSNT ALQDS P0040 T02330189
 
KPPF - Parsons, Kansas, USA
Distance from station: NNE 48mi, 76km
Updated: Thu, 16-Aug-2018 6:52pm CDT
Clear
Clear
 Wind from SSW
Wind: SSW 10 mph , 17 km/h
Temperature: 73°F , 23°C
Dew Point: 70°F , 21°C
Humidity: 89%
Barometer: 29.96 inHg , 1014.6 hPa
Clouds: Clear
Visibility: 10 miles , 16 km
2018/08/16 23:52 KPPF 162352Z AUTO 21009KT 10SM CLR 23/21 A2996 RMK AO2 LTG DSNT ALQDS SLP137 T02330211 10328 20233 50001
KGMJ - Grove, Oklahoma, USA
Distance from station: E 63mi, 101km
Updated: Thu, 16-Aug-2018 7:15pm CDT
Nearby thunderstorm, Clear
Nearby thunderstorm, Clear
 Wind from WSW
Wind: WSW 16 mph , 26 km/h, Gust: 23 mph , 37 km/h
Temperature: 81°F , 27°C
Heat Index: 84°F , 29°C
Dew Point: 68°F , 20°C
Humidity: 66%
Barometer: 30.00 inHg , 1015.9 hPa
Summary: Nearby Thunderstorm
Clouds: Clear
Visibility: 10 miles , 16 km
2018/08/17 00:15 KGMJ 170015Z AUTO 25014G20KT 10SM VCTS CLR 27/20 A3000 RMK AO2 LTG DSNT ALQS
 
KPNC - Ponca City, Oklahoma, USA
Distance from station: W 69mi, 111km
Updated: Thu, 16-Aug-2018 6:53pm CDT

 Wind from S
Wind: S 7 mph , 11 km/h
Temperature: 81°F , 27°C
Heat Index: 85°F , 29°C
Dew Point: 70°F , 21°C
Humidity: 70%
Barometer: 29.95 inHg , 1014.2 hPa
Visibility: 10 miles , 16 km
2018/08/16 23:53 KPNC 162353Z AUTO 18006KT 10SM 27/21 A2995 RMK AO2 SLP129 60007 T02720206 10356 20228 58004 $
KCNU - Chanute, Kansas, USA
Distance from station: NNE 69mi, 112km
Updated: Thu, 16-Aug-2018 7:24pm CDT
Heavy thunderstorm rain, Mist, Overcast
Heavy thunderstorm rain, Mist, Overcast
 Wind from E
Wind: E 14 mph , 22 km/h, Gust: 31 mph , 50 km/h
Temperature: 72°F , 22°C
Dew Point: 72°F , 22°C
Humidity: 100%
Barometer: 30.03 inHg , 1016.9 hPa
Summary: Heavy thunderstorm rain, Mist
Clouds: Overcast
Visibility: 2 miles , 3 km
Cloud details: Partly cloudy 2900 ft
Mostly cloudy 3900 ft
Overcast 7000 ft
2018/08/17 00:24 KCNU 170024Z AUTO 09012G27KT 2SM +TSRA BR SCT029 BKN039 OVC070 22/22 A3003 RMK AO2 PK WND 03028/0013 WSHFT 0007 LTG DSNT ALQDS RAB03 TSE2356B2359 P0023 T02170217